sensor_id;sensor_type;location;lat;lon;timestamp;P1;durP1;ratioP1;P2;durP2;ratioP2
64459;SDS011;50828;53.756;21.140;2023-01-24T00:04:43;88.90;;;25.70;;
64459;SDS011;50828;53.756;21.140;2023-01-24T00:09:52;128.00;;;32.10;;
64459;SDS011;50828;53.756;21.140;2023-01-24T00:15:00;105.60;;;30.00;;
64459;SDS011;50828;53.756;21.140;2023-01-24T00:20:09;66.10;;;21.50;;
64459;SDS011;50828;53.756;21.140;2023-01-24T00:25:18;65.80;;;19.80;;
64459;SDS011;50828;53.756;21.140;2023-01-24T00:30:27;56.20;;;16.50;;
64459;SDS011;50828;53.756;21.140;2023-01-24T00:35:35;73.60;;;23.60;;
64459;SDS011;50828;53.756;21.140;2023-01-24T00:40:43;82.60;;;22.40;;
64459;SDS011;50828;53.756;21.140;2023-01-24T00:45:52;73.10;;;22.20;;
64459;SDS011;50828;53.756;21.140;2023-01-24T00:51:01;67.60;;;20.90;;
64459;SDS011;50828;53.756;21.140;2023-01-24T00:56:09;83.10;;;22.30;;
64459;SDS011;50828;53.756;21.140;2023-01-24T01:01:18;79.30;;;24.20;;
64459;SDS011;50828;53.756;21.140;2023-01-24T01:06:27;81.90;;;24.20;;
64459;SDS011;50828;53.756;21.140;2023-01-24T01:11:35;67.40;;;20.20;;
64459;SDS011;50828;53.756;21.140;2023-01-24T01:16:46;77.00;;;24.00;;
64459;SDS011;50828;53.756;21.140;2023-01-24T01:21:55;78.40;;;24.40;;
64459;SDS011;50828;53.756;21.140;2023-01-24T01:27:03;116.10;;;29.90;;
64459;SDS011;50828;53.756;21.140;2023-01-24T01:32:11;99.90;;;28.30;;
64459;SDS011;50828;53.756;21.140;2023-01-24T01:37:20;91.40;;;27.10;;
64459;SDS011;50828;53.756;21.140;2023-01-24T01:42:39;106.00;;;27.50;;
64459;SDS011;50828;53.756;21.140;2023-01-24T01:47:51;137.20;;;33.60;;
64459;SDS011;50828;53.756;21.140;2023-01-24T01:53:00;108.20;;;26.50;;
64459;SDS011;50828;53.756;21.140;2023-01-24T01:58:09;107.60;;;27.20;;
64459;SDS011;50828;53.756;21.140;2023-01-24T02:03:18;106.00;;;27.30;;
64459;SDS011;50828;53.756;21.140;2023-01-24T02:08:46;91.10;;;23.70;;
64459;SDS011;50828;53.756;21.140;2023-01-24T02:13:56;83.90;;;23.00;;
64459;SDS011;50828;53.756;21.140;2023-01-24T02:19:26;97.80;;;25.20;;
64459;SDS011;50828;53.756;21.140;2023-01-24T02:24:50;84.70;;;23.40;;
64459;SDS011;50828;53.756;21.140;2023-01-24T02:30:10;60.90;;;19.80;;
64459;SDS011;50828;53.756;21.140;2023-01-24T02:35:29;67.50;;;20.30;;
64459;SDS011;50828;53.756;21.140;2023-01-24T02:40:37;106.10;;;24.90;;
64459;SDS011;50828;53.756;21.140;2023-01-24T02:45:47;129.00;;;27.60;;
64459;SDS011;50828;53.756;21.140;2023-01-24T02:50:56;126.80;;;27.90;;
64459;SDS011;50828;53.756;21.140;2023-01-24T02:56:23;108.90;;;23.80;;
64459;SDS011;50828;53.756;21.140;2023-01-24T03:01:49;128.90;;;29.80;;
64459;SDS011;50828;53.756;21.140;2023-01-24T03:06:58;111.10;;;26.70;;
64459;SDS011;50828;53.756;21.140;2023-01-24T03:12:08;98.40;;;24.00;;
64459;SDS011;50828;53.756;21.140;2023-01-24T03:17:33;139.00;;;30.00;;
64459;SDS011;50828;53.756;21.140;2023-01-24T03:22:59;151.20;;;31.30;;
64459;SDS011;50828;53.756;21.140;2023-01-24T03:28:25;130.50;;;27.20;;
64459;SDS011;50828;53.756;21.140;2023-01-24T03:33:51;95.20;;;23.60;;
64459;SDS011;50828;53.756;21.140;2023-01-24T03:39:17;117.60;;;26.70;;
64459;SDS011;50828;53.756;21.140;2023-01-24T03:44:43;136.80;;;28.80;;
64459;SDS011;50828;53.756;21.140;2023-01-24T03:49:52;118.10;;;27.20;;
64459;SDS011;50828;53.756;21.140;2023-01-24T03:55:19;118.60;;;26.20;;
64459;SDS011;50828;53.756;21.140;2023-01-24T04:00:29;96.10;;;24.70;;
64459;SDS011;50828;53.756;21.140;2023-01-24T04:05:40;89.30;;;23.70;;
64459;SDS011;50828;53.756;21.140;2023-01-24T04:10:48;125.80;;;38.90;;
64459;SDS011;50828;53.756;21.140;2023-01-24T04:15:56;87.20;;;29.50;;
64459;SDS011;50828;53.756;21.140;2023-01-24T04:21:30;75.40;;;24.50;;
64459;SDS011;50828;53.756;21.140;2023-01-24T04:26:39;62.30;;;21.10;;
64459;SDS011;50828;53.756;21.140;2023-01-24T04:31:53;68.70;;;21.80;;
64459;SDS011;50828;53.756;21.140;2023-01-24T04:37:36;54.40;;;18.70;;
64459;SDS011;50828;53.756;21.140;2023-01-24T04:42:46;43.20;;;17.10;;
64459;SDS011;50828;53.756;21.140;2023-01-24T04:47:55;46.80;;;16.10;;
64459;SDS011;50828;53.756;21.140;2023-01-24T04:53:03;50.70;;;17.50;;
64459;SDS011;50828;53.756;21.140;2023-01-24T04:58:12;50.00;;;15.90;;
64459;SDS011;50828;53.756;21.140;2023-01-24T05:03:21;51.80;;;17.70;;
64459;SDS011;50828;53.756;21.140;2023-01-24T05:08:30;66.50;;;19.20;;
64459;SDS011;50828;53.756;21.140;2023-01-24T05:13:40;61.20;;;20.70;;
64459;SDS011;50828;53.756;21.140;2023-01-24T05:18:48;48.90;;;16.30;;
64459;SDS011;50828;53.756;21.140;2023-01-24T05:23:57;49.60;;;17.00;;
64459;SDS011;50828;53.756;21.140;2023-01-24T05:29:06;64.10;;;21.70;;
64459;SDS011;50828;53.756;21.140;2023-01-24T05:34:15;75.90;;;25.70;;
64459;SDS011;50828;53.756;21.140;2023-01-24T05:39:24;65.70;;;25.40;;
64459;SDS011;50828;53.756;21.140;2023-01-24T05:44:33;88.70;;;32.20;;
64459;SDS011;50828;53.756;21.140;2023-01-24T05:49:41;72.00;;;28.70;;
64459;SDS011;50828;53.756;21.140;2023-01-24T05:54:50;86.70;;;31.20;;
64459;SDS011;50828;53.756;21.140;2023-01-24T06:00:05;77.90;;;30.90;;
64459;SDS011;50828;53.756;21.140;2023-01-24T06:05:18;66.90;;;25.30;;
64459;SDS011;50828;53.756;21.140;2023-01-24T06:10:28;55.60;;;21.20;;
64459;SDS011;50828;53.756;21.140;2023-01-24T06:15:40;48.30;;;17.70;;
64459;SDS011;50828;53.756;21.140;2023-01-24T06:20:49;42.80;;;17.80;;
64459;SDS011;50828;53.756;21.140;2023-01-24T06:31:12;38.60;;;14.80;;
64459;SDS011;50828;53.756;21.140;2023-01-24T06:36:30;42.50;;;15.80;;
64459;SDS011;50828;53.756;21.140;2023-01-24T06:41:46;48.40;;;17.90;;
64459;SDS011;50828;53.756;21.140;2023-01-24T06:46:55;47.10;;;19.80;;
64459;SDS011;50828;53.756;21.140;2023-01-24T06:52:03;53.40;;;21.40;;
64459;SDS011;50828;53.756;21.140;2023-01-24T06:57:12;50.10;;;20.10;;
64459;SDS011;50828;53.756;21.140;2023-01-24T07:02:20;47.80;;;16.90;;
64459;SDS011;50828;53.756;21.140;2023-01-24T07:07:28;45.70;;;16.70;;
64459;SDS011;50828;53.756;21.140;2023-01-24T07:12:38;40.40;;;16.30;;
64459;SDS011;50828;53.756;21.140;2023-01-24T07:17:49;39.30;;;15.20;;
64459;SDS011;50828;53.756;21.140;2023-01-24T07:22:59;45.80;;;16.40;;
64459;SDS011;50828;53.756;21.140;2023-01-24T07:28:08;44.00;;;16.80;;
64459;SDS011;50828;53.756;21.140;2023-01-24T07:33:17;40.00;;;15.70;;
64459;SDS011;50828;53.756;21.140;2023-01-24T07:38:26;33.10;;;13.30;;
64459;SDS011;50828;53.756;21.140;2023-01-24T07:43:34;36.10;;;14.10;;
64459;SDS011;50828;53.756;21.140;2023-01-24T07:48:43;43.00;;;15.50;;
64459;SDS011;50828;53.756;21.140;2023-01-24T07:53:51;34.70;;;15.30;;
64459;SDS011;50828;53.756;21.140;2023-01-24T07:59:00;35.30;;;14.50;;
64459;SDS011;50828;53.756;21.140;2023-01-24T08:04:08;42.50;;;15.40;;
64459;SDS011;50828;53.756;21.140;2023-01-24T08:09:15;40.80;;;15.40;;
64459;SDS011;50828;53.756;21.140;2023-01-24T08:14:24;36.40;;;15.10;;
64459;SDS011;50828;53.756;21.140;2023-01-24T08:19:32;38.90;;;15.10;;
64459;SDS011;50828;53.756;21.140;2023-01-24T08:25:00;32.80;;;14.90;;
64459;SDS011;50828;53.756;21.140;2023-01-24T08:30:10;38.30;;;15.90;;
64459;SDS011;50828;53.756;21.140;2023-01-24T08:35:20;40.80;;;16.70;;
64459;SDS011;50828;53.756;21.140;2023-01-24T08:40:28;46.80;;;19.30;;
64459;SDS011;50828;53.756;21.140;2023-01-24T08:45:55;49.00;;;20.30;;
64459;SDS011;50828;53.756;21.140;2023-01-24T08:51:04;42.70;;;18.90;;
64459;SDS011;50828;53.756;21.140;2023-01-24T08:56:11;40.70;;;17.50;;
64459;SDS011;50828;53.756;21.140;2023-01-24T09:01:20;47.50;;;19.10;;
64459;SDS011;50828;53.756;21.140;2023-01-24T09:06:30;52.40;;;19.40;;
64459;SDS011;50828;53.756;21.140;2023-01-24T09:11:38;63.20;;;25.50;;
64459;SDS011;50828;53.756;21.140;2023-01-24T09:16:47;69.10;;;27.50;;
64459;SDS011;50828;53.756;21.140;2023-01-24T09:21:55;94.00;;;30.60;;
64459;SDS011;50828;53.756;21.140;2023-01-24T09:27:04;75.70;;;25.20;;
64459;SDS011;50828;53.756;21.140;2023-01-24T09:32:12;62.20;;;24.20;;
64459;SDS011;50828;53.756;21.140;2023-01-24T09:37:21;151.30;;;38.80;;
64459;SDS011;50828;53.756;21.140;2023-01-24T09:42:33;178.90;;;44.70;;
64459;SDS011;50828;53.756;21.140;2023-01-24T09:47:46;116.70;;;37.80;;
64459;SDS011;50828;53.756;21.140;2023-01-24T09:52:57;112.70;;;33.10;;
64459;SDS011;50828;53.756;21.140;2023-01-24T09:58:06;193.00;;;45.60;;
64459;SDS011;50828;53.756;21.140;2023-01-24T10:03:23;108.60;;;32.20;;
64459;SDS011;50828;53.756;21.140;2023-01-24T10:08:33;85.00;;;26.80;;
64459;SDS011;50828;53.756;21.140;2023-01-24T10:13:52;75.10;;;25.00;;
64459;SDS011;50828;53.756;21.140;2023-01-24T10:19:10;76.60;;;25.60;;
64459;SDS011;50828;53.756;21.140;2023-01-24T10:24:30;65.90;;;23.40;;
64459;SDS011;50828;53.756;21.140;2023-01-24T10:29:41;61.70;;;23.70;;
64459;SDS011;50828;53.756;21.140;2023-01-24T10:40:04;51.60;;;19.80;;
64459;SDS011;50828;53.756;21.140;2023-01-24T10:45:27;54.40;;;19.30;;
64459;SDS011;50828;53.756;21.140;2023-01-24T10:50:47;51.90;;;19.70;;
64459;SDS011;50828;53.756;21.140;2023-01-24T10:55:59;55.30;;;21.80;;
64459;SDS011;50828;53.756;21.140;2023-01-24T11:01:09;53.80;;;20.50;;
64459;SDS011;50828;53.756;21.140;2023-01-24T11:06:28;57.30;;;19.90;;
64459;SDS011;50828;53.756;21.140;2023-01-24T11:11:42;52.60;;;19.50;;
64459;SDS011;50828;53.756;21.140;2023-01-24T11:16:53;54.50;;;20.00;;
64459;SDS011;50828;53.756;21.140;2023-01-24T11:22:18;54.70;;;19.10;;
64459;SDS011;50828;53.756;21.140;2023-01-24T11:27:28;41.90;;;17.70;;
64459;SDS011;50828;53.756;21.140;2023-01-24T11:32:40;44.60;;;17.90;;
64459;SDS011;50828;53.756;21.140;2023-01-24T11:43:35;30.50;;;13.30;;
64459;SDS011;50828;53.756;21.140;2023-01-24T11:48:54;37.70;;;13.50;;
64459;SDS011;50828;53.756;21.140;2023-01-24T11:54:09;37.30;;;14.60;;
64459;SDS011;50828;53.756;21.140;2023-01-24T11:59:34;32.60;;;13.20;;
64459;SDS011;50828;53.756;21.140;2023-01-24T12:05:08;37.70;;;14.20;;
64459;SDS011;50828;53.756;21.140;2023-01-24T12:10:28;38.10;;;15.90;;
64459;SDS011;50828;53.756;21.140;2023-01-24T12:15:49;36.80;;;13.50;;
64459;SDS011;50828;53.756;21.140;2023-01-24T12:21:07;35.20;;;14.30;;
64459;SDS011;50828;53.756;21.140;2023-01-24T12:26:17;33.20;;;14.70;;
64459;SDS011;50828;53.756;21.140;2023-01-24T12:31:32;36.00;;;14.10;;
64459;SDS011;50828;53.756;21.140;2023-01-24T12:36:47;36.60;;;14.00;;
64459;SDS011;50828;53.756;21.140;2023-01-24T12:42:01;31.80;;;13.20;;
64459;SDS011;50828;53.756;21.140;2023-01-24T12:47:19;31.00;;;13.70;;
64459;SDS011;50828;53.756;21.140;2023-01-24T12:52:38;31.60;;;13.40;;
64459;SDS011;50828;53.756;21.140;2023-01-24T12:57:56;33.20;;;14.70;;
64459;SDS011;50828;53.756;21.140;2023-01-24T13:09:02;35.50;;;13.10;;
64459;SDS011;50828;53.756;21.140;2023-01-24T13:14:21;32.90;;;14.60;;
64459;SDS011;50828;53.756;21.140;2023-01-24T13:19:36;32.70;;;13.30;;
64459;SDS011;50828;53.756;21.140;2023-01-24T13:25:05;30.40;;;13.40;;
64459;SDS011;50828;53.756;21.140;2023-01-24T13:30:34;31.80;;;13.00;;
64459;SDS011;50828;53.756;21.140;2023-01-24T13:35:51;21.90;;;11.00;;
64459;SDS011;50828;53.756;21.140;2023-01-24T13:41:01;26.00;;;11.80;;
64459;SDS011;50828;53.756;21.140;2023-01-24T13:46:12;27.60;;;11.00;;
64459;SDS011;50828;53.756;21.140;2023-01-24T13:51:29;24.30;;;10.70;;
64459;SDS011;50828;53.756;21.140;2023-01-24T14:02:31;25.20;;;10.70;;
64459;SDS011;50828;53.756;21.140;2023-01-24T14:07:44;22.10;;;9.80;;
64459;SDS011;50828;53.756;21.140;2023-01-24T14:12:54;23.60;;;10.80;;
64459;SDS011;50828;53.756;21.140;2023-01-24T14:18:03;21.30;;;9.60;;
64459;SDS011;50828;53.756;21.140;2023-01-24T14:23:45;23.70;;;9.80;;
64459;SDS011;50828;53.756;21.140;2023-01-24T14:34:07;24.00;;;9.70;;
64459;SDS011;50828;53.756;21.140;2023-01-24T14:39:24;18.70;;;8.60;;
64459;SDS011;50828;53.756;21.140;2023-01-24T14:44:33;21.20;;;8.90;;
64459;SDS011;50828;53.756;21.140;2023-01-24T14:49:45;18.60;;;8.10;;
64459;SDS011;50828;53.756;21.140;2023-01-24T14:54:55;18.20;;;8.60;;
64459;SDS011;50828;53.756;21.140;2023-01-24T15:00:06;21.10;;;8.80;;
64459;SDS011;50828;53.756;21.140;2023-01-24T15:05:24;27.50;;;10.70;;
64459;SDS011;50828;53.756;21.140;2023-01-24T15:10:36;19.50;;;9.10;;
64459;SDS011;50828;53.756;21.140;2023-01-24T15:15:46;30.10;;;12.30;;
64459;SDS011;50828;53.756;21.140;2023-01-24T15:20:54;25.30;;;11.20;;
64459;SDS011;50828;53.756;21.140;2023-01-24T15:31:39;25.90;;;10.90;;
64459;SDS011;50828;53.756;21.140;2023-01-24T15:36:59;34.30;;;15.00;;
64459;SDS011;50828;53.756;21.140;2023-01-24T15:42:12;25.20;;;11.30;;
64459;SDS011;50828;53.756;21.140;2023-01-24T15:47:40;25.40;;;10.70;;
64459;SDS011;50828;53.756;21.140;2023-01-24T15:58:29;43.70;;;13.20;;
64459;SDS011;50828;53.756;21.140;2023-01-24T16:03:39;41.80;;;15.50;;
64459;SDS011;50828;53.756;21.140;2023-01-24T16:08:47;173.60;;;47.40;;
64459;SDS011;50828;53.756;21.140;2023-01-24T16:13:56;196.30;;;55.00;;
64459;SDS011;50828;53.756;21.140;2023-01-24T16:19:06;243.80;;;64.20;;
64459;SDS011;50828;53.756;21.140;2023-01-24T16:24:21;189.00;;;48.10;;
64459;SDS011;50828;53.756;21.140;2023-01-24T16:29:30;42.80;;;13.70;;
64459;SDS011;50828;53.756;21.140;2023-01-24T16:34:39;62.40;;;20.00;;
64459;SDS011;50828;53.756;21.140;2023-01-24T16:39:48;23.90;;;11.30;;
64459;SDS011;50828;53.756;21.140;2023-01-24T16:44:57;24.20;;;10.70;;
64459;SDS011;50828;53.756;21.140;2023-01-24T16:50:07;115.80;;;29.70;;
64459;SDS011;50828;53.756;21.140;2023-01-24T17:00:25;155.80;;;36.30;;
64459;SDS011;50828;53.756;21.140;2023-01-24T17:05:34;153.40;;;38.70;;
64459;SDS011;50828;53.756;21.140;2023-01-24T17:10:46;119.50;;;32.70;;
64459;SDS011;50828;53.756;21.140;2023-01-24T17:15:54;119.50;;;31.10;;
64459;SDS011;50828;53.756;21.140;2023-01-24T17:21:03;63.20;;;19.80;;
64459;SDS011;50828;53.756;21.140;2023-01-24T17:26:13;70.80;;;24.60;;
64459;SDS011;50828;53.756;21.140;2023-01-24T17:31:23;46.60;;;18.40;;
64459;SDS011;50828;53.756;21.140;2023-01-24T17:36:31;51.60;;;16.00;;
64459;SDS011;50828;53.756;21.140;2023-01-24T17:41:41;28.80;;;13.50;;
64459;SDS011;50828;53.756;21.140;2023-01-24T17:46:50;22.90;;;11.70;;
64459;SDS011;50828;53.756;21.140;2023-01-24T17:51:59;65.90;;;22.10;;
64459;SDS011;50828;53.756;21.140;2023-01-24T17:57:08;51.60;;;16.30;;
64459;SDS011;50828;53.756;21.140;2023-01-24T18:02:17;35.30;;;14.50;;
64459;SDS011;50828;53.756;21.140;2023-01-24T18:07:26;32.60;;;15.30;;
64459;SDS011;50828;53.756;21.140;2023-01-24T18:12:35;24.80;;;12.30;;
64459;SDS011;50828;53.756;21.140;2023-01-24T18:17:47;20.50;;;10.50;;
64459;SDS011;50828;53.756;21.140;2023-01-24T18:22:55;32.60;;;12.10;;
64459;SDS011;50828;53.756;21.140;2023-01-24T18:28:03;20.00;;;8.50;;
64459;SDS011;50828;53.756;21.140;2023-01-24T18:33:11;15.70;;;8.30;;
64459;SDS011;50828;53.756;21.140;2023-01-24T18:38:19;18.00;;;8.80;;
64459;SDS011;50828;53.756;21.140;2023-01-24T18:43:29;23.90;;;11.10;;
64459;SDS011;50828;53.756;21.140;2023-01-24T18:48:38;21.70;;;10.50;;
64459;SDS011;50828;53.756;21.140;2023-01-24T18:53:50;18.30;;;9.30;;
64459;SDS011;50828;53.756;21.140;2023-01-24T18:58:58;18.10;;;10.30;;
64459;SDS011;50828;53.756;21.140;2023-01-24T19:04:06;29.40;;;11.50;;
64459;SDS011;50828;53.756;21.140;2023-01-24T19:09:16;28.70;;;11.10;;
64459;SDS011;50828;53.756;21.140;2023-01-24T19:14:24;21.20;;;10.10;;
64459;SDS011;50828;53.756;21.140;2023-01-24T19:19:35;92.10;;;24.70;;
64459;SDS011;50828;53.756;21.140;2023-01-24T19:24:44;93.40;;;27.50;;
64459;SDS011;50828;53.756;21.140;2023-01-24T19:29:52;31.90;;;13.80;;
64459;SDS011;50828;53.756;21.140;2023-01-24T19:35:01;26.30;;;11.30;;
64459;SDS011;50828;53.756;21.140;2023-01-24T19:40:11;20.10;;;10.20;;
64459;SDS011;50828;53.756;21.140;2023-01-24T19:45:20;299.50;;;56.60;;
64459;SDS011;50828;53.756;21.140;2023-01-24T19:50:29;130.60;;;28.10;;
64459;SDS011;50828;53.756;21.140;2023-01-24T19:55:37;39.90;;;13.10;;
64459;SDS011;50828;53.756;21.140;2023-01-24T20:00:45;24.00;;;11.30;;
64459;SDS011;50828;53.756;21.140;2023-01-24T20:05:54;24.70;;;10.40;;
64459;SDS011;50828;53.756;21.140;2023-01-24T20:11:05;39.00;;;14.90;;
64459;SDS011;50828;53.756;21.140;2023-01-24T20:16:15;31.00;;;12.20;;
64459;SDS011;50828;53.756;21.140;2023-01-24T20:21:26;32.70;;;13.60;;
64459;SDS011;50828;53.756;21.140;2023-01-24T20:26:36;52.80;;;16.40;;
64459;SDS011;50828;53.756;21.140;2023-01-24T20:31:45;44.30;;;15.20;;
64459;SDS011;50828;53.756;21.140;2023-01-24T20:36:54;27.50;;;11.60;;
64459;SDS011;50828;53.756;21.140;2023-01-24T20:42:04;26.90;;;12.10;;
64459;SDS011;50828;53.756;21.140;2023-01-24T20:47:14;28.00;;;11.30;;
64459;SDS011;50828;53.756;21.140;2023-01-24T20:52:22;27.00;;;12.40;;
64459;SDS011;50828;53.756;21.140;2023-01-24T20:57:31;24.60;;;12.70;;
64459;SDS011;50828;53.756;21.140;2023-01-24T21:02:40;24.30;;;11.90;;
64459;SDS011;50828;53.756;21.140;2023-01-24T21:07:49;24.00;;;11.70;;
64459;SDS011;50828;53.756;21.140;2023-01-24T21:12:58;25.60;;;12.40;;
64459;SDS011;50828;53.756;21.140;2023-01-24T21:18:06;23.20;;;12.10;;
64459;SDS011;50828;53.756;21.140;2023-01-24T21:23:23;27.00;;;12.10;;
64459;SDS011;50828;53.756;21.140;2023-01-24T21:28:34;22.70;;;11.40;;
64459;SDS011;50828;53.756;21.140;2023-01-24T21:33:42;23.60;;;12.50;;
64459;SDS011;50828;53.756;21.140;2023-01-24T21:38:52;22.80;;;11.80;;
64459;SDS011;50828;53.756;21.140;2023-01-24T21:44:01;23.90;;;12.40;;
64459;SDS011;50828;53.756;21.140;2023-01-24T21:49:13;24.70;;;12.20;;
64459;SDS011;50828;53.756;21.140;2023-01-24T21:54:22;24.10;;;12.70;;
64459;SDS011;50828;53.756;21.140;2023-01-24T21:59:32;22.00;;;12.60;;
64459;SDS011;50828;53.756;21.140;2023-01-24T22:04:42;26.40;;;14.00;;
64459;SDS011;50828;53.756;21.140;2023-01-24T22:09:51;25.20;;;12.30;;
64459;SDS011;50828;53.756;21.140;2023-01-24T22:15:01;21.30;;;11.80;;
64459;SDS011;50828;53.756;21.140;2023-01-24T22:20:12;20.10;;;11.40;;
64459;SDS011;50828;53.756;21.140;2023-01-24T22:25:30;25.40;;;12.20;;
64459;SDS011;50828;53.756;21.140;2023-01-24T22:30:46;23.00;;;12.90;;
64459;SDS011;50828;53.756;21.140;2023-01-24T22:35:55;26.60;;;12.20;;
64459;SDS011;50828;53.756;21.140;2023-01-24T22:41:05;22.40;;;12.00;;
64459;SDS011;50828;53.756;21.140;2023-01-24T22:46:14;25.50;;;12.80;;
64459;SDS011;50828;53.756;21.140;2023-01-24T22:51:23;27.80;;;13.00;;
64459;SDS011;50828;53.756;21.140;2023-01-24T22:56:31;26.40;;;13.70;;
64459;SDS011;50828;53.756;21.140;2023-01-24T23:01:40;28.40;;;13.90;;
64459;SDS011;50828;53.756;21.140;2023-01-24T23:06:49;28.70;;;15.10;;
64459;SDS011;50828;53.756;21.140;2023-01-24T23:11:56;28.90;;;14.30;;
64459;SDS011;50828;53.756;21.140;2023-01-24T23:17:07;25.70;;;13.70;;
64459;SDS011;50828;53.756;21.140;2023-01-24T23:22:17;24.60;;;12.50;;
64459;SDS011;50828;53.756;21.140;2023-01-24T23:27:27;24.90;;;11.60;;
64459;SDS011;50828;53.756;21.140;2023-01-24T23:32:40;26.20;;;12.20;;
64459;SDS011;50828;53.756;21.140;2023-01-24T23:37:51;18.20;;;10.00;;
64459;SDS011;50828;53.756;21.140;2023-01-24T23:43:00;18.20;;;9.40;;
64459;SDS011;50828;53.756;21.140;2023-01-24T23:48:09;16.00;;;8.80;;
64459;SDS011;50828;53.756;21.140;2023-01-24T23:53:17;18.50;;;9.70;;
64459;SDS011;50828;53.756;21.140;2023-01-24T23:58:26;20.10;;;10.50;;
